createdAt,value
2023-11-18T00:00:12.468Z,3.30
2023-11-18T00:02:40.759Z,3.35
2023-11-18T00:05:08.885Z,3.28
2023-11-18T00:07:36.703Z,3.13
2023-11-18T00:10:05.768Z,3.13
2023-11-18T00:12:36.972Z,3.33
2023-11-18T00:15:05.596Z,3.00
2023-11-18T00:17:34.726Z,3.13
2023-11-18T00:20:02.418Z,3.20
2023-11-18T00:22:30.873Z,3.30
2023-11-18T00:24:57.999Z,3.00
2023-11-18T00:27:26.329Z,2.90
2023-11-18T00:29:54.416Z,3.50
2023-11-18T00:32:21.983Z,3.40
2023-11-18T00:34:49.283Z,2.70
2023-11-18T00:37:16.666Z,3.50
2023-11-18T00:39:43.841Z,3.90
2023-11-18T00:42:11.153Z,4.13
2023-11-18T00:44:39.070Z,3.80
2023-11-18T00:47:06.797Z,3.50
2023-11-18T00:49:35.345Z,3.43
2023-11-18T00:52:02.914Z,2.95
2023-11-18T00:54:30.326Z,3.72
2023-11-18T00:56:57.723Z,3.67
2023-11-18T00:59:24.993Z,3.50
2023-11-18T01:01:52.088Z,3.37
2023-11-18T01:04:21.215Z,3.22
2023-11-18T01:06:49.535Z,3.25
2023-11-18T01:09:17.520Z,3.20
2023-11-18T01:12:07.072Z,3.08
2023-11-18T01:14:31.911Z,3.87
2023-11-18T01:16:59.262Z,3.83
2023-11-18T01:19:26.419Z,3.50
2023-11-18T01:21:54.432Z,3.85
2023-11-18T01:24:21.619Z,3.30
2023-11-18T01:26:49.102Z,4.20
2023-11-18T01:29:16.402Z,3.97
2023-11-18T01:31:51.777Z,4.38
2023-11-18T01:34:23.931Z,3.40
2023-11-18T01:36:51.648Z,4.28
2023-11-18T01:39:19.489Z,3.87
2023-11-18T01:41:47.358Z,3.67
2023-11-18T01:44:15.057Z,4.55
2023-11-18T01:46:46.813Z,4.55
2023-11-18T01:49:15.822Z,4.80
2023-11-18T01:51:46.641Z,4.53
2023-11-18T01:54:20.381Z,4.45
2023-11-18T01:56:50.467Z,5.43
2023-11-18T01:59:21.012Z,4.30
2023-11-18T02:01:54.735Z,4.18
2023-11-18T02:04:23.029Z,4.77
2023-11-18T02:06:51.323Z,4.13
2023-11-18T02:09:20.439Z,3.72
2023-11-18T02:12:01.269Z,4.07
2023-11-18T02:14:30.123Z,4.78
2023-11-18T02:17:01.268Z,4.47
2023-11-18T02:19:31.363Z,4.50
2023-11-18T02:21:59.589Z,4.30
2023-11-18T02:24:32.362Z,3.38
2023-11-18T02:27:00.667Z,4.82
2023-11-18T02:29:33.938Z,3.80
2023-11-18T02:32:11.721Z,4.90
2023-11-18T02:34:44.923Z,4.40
2023-11-18T02:37:13.809Z,4.50
2023-11-18T02:39:45.602Z,5.00
2023-11-18T02:42:14.702Z,4.57
2023-11-18T02:44:45.018Z,4.35
2023-11-18T02:47:12.374Z,3.78
2023-11-18T02:49:40.235Z,3.63
2023-11-18T02:52:07.625Z,4.10
2023-11-18T02:54:34.755Z,3.37
2023-11-18T02:57:02.397Z,4.45
2023-11-18T02:59:32.256Z,3.83
2023-11-18T03:01:59.501Z,4.53
2023-11-18T03:04:27.094Z,4.32
2023-11-18T03:06:54.233Z,4.13
2023-11-18T03:09:21.400Z,3.35
2023-11-18T03:11:48.748Z,4.50
2023-11-18T03:14:15.906Z,4.90
2023-11-18T03:16:43.279Z,5.22
2023-11-18T03:19:10.582Z,4.67
2023-11-18T03:21:38.192Z,4.70
2023-11-18T03:24:05.966Z,4.78
2023-11-18T03:26:33.762Z,4.03
2023-11-18T03:31:46.084Z,4.20
2023-11-18T03:34:13.333Z,3.90
2023-11-18T03:36:40.499Z,4.35
2023-11-18T03:39:07.682Z,4.82
2023-11-18T03:41:34.729Z,5.18
2023-11-18T03:44:01.899Z,4.57
2023-11-18T03:46:35.869Z,4.10
2023-11-18T03:49:03.229Z,4.00
2023-11-18T03:51:30.779Z,4.28
2023-11-18T03:53:57.896Z,3.97
2023-11-18T03:56:25.500Z,5.00
2023-11-18T03:58:52.697Z,5.15
2023-11-18T04:01:29.906Z,5.15
2023-11-18T04:03:57.374Z,5.30
2023-11-18T04:06:25.702Z,4.88
2023-11-18T04:08:52.967Z,4.60
2023-11-18T04:11:20.187Z,5.25
2023-11-18T04:13:47.551Z,4.82
2023-11-18T04:16:18.063Z,4.55
2023-11-18T04:18:47.078Z,4.82
2023-11-18T04:21:14.657Z,4.73
2023-11-18T04:23:45.401Z,4.68
2023-11-18T04:26:13.277Z,4.68
2023-11-18T04:28:40.567Z,4.55
2023-11-18T04:31:07.860Z,4.90
2023-11-18T04:33:35.075Z,5.17
2023-11-18T04:36:02.734Z,4.90
2023-11-18T04:38:30.071Z,4.85
2023-11-18T04:40:57.290Z,4.53
2023-11-18T04:43:30.819Z,4.25
2023-11-18T04:46:07.824Z,4.37
2023-11-18T04:48:39.714Z,4.53
2023-11-18T04:51:08.821Z,4.63
2023-11-18T04:53:36.027Z,4.40
2023-11-18T04:56:04.229Z,4.65
2023-11-18T04:58:31.458Z,4.40
2023-11-18T05:00:58.795Z,4.38
2023-11-18T05:03:25.994Z,4.85
2023-11-18T05:05:56.041Z,4.63
2023-11-18T05:08:25.466Z,5.63
2023-11-18T05:10:53.104Z,5.47
2023-11-18T05:13:20.433Z,5.97
2023-11-18T05:15:48.543Z,5.97
2023-11-18T05:18:16.893Z,7.50
2023-11-18T05:20:45.510Z,5.90
2023-11-18T05:23:13.803Z,6.23
2023-11-18T05:25:41.577Z,6.68
2023-11-18T05:28:09.877Z,5.95
2023-11-18T05:30:37.523Z,5.65
2023-11-18T05:33:08.633Z,6.03
2023-11-18T05:35:36.385Z,5.30
2023-11-18T05:38:04.536Z,6.00
2023-11-18T05:40:31.649Z,5.55
2023-11-18T05:43:00.074Z,5.55
2023-11-18T05:45:33.120Z,6.45
2023-11-18T05:48:00.504Z,5.70
2023-11-18T05:50:28.542Z,5.97
2023-11-18T05:52:56.559Z,5.03
2023-11-18T05:55:23.776Z,5.10
2023-11-18T05:57:50.943Z,4.68
2023-11-18T06:00:25.519Z,5.93
2023-11-18T06:02:57.960Z,5.20
2023-11-18T06:05:27.679Z,5.10
2023-11-18T06:07:54.923Z,5.45
2023-11-18T06:10:22.045Z,6.32
2023-11-18T06:12:49.271Z,5.60
2023-11-18T06:15:18.413Z,6.40
2023-11-18T06:17:47.062Z,6.15
2023-11-18T06:20:15.636Z,6.20
2023-11-18T06:22:42.886Z,6.38
2023-11-18T06:25:10.340Z,6.53
2023-11-18T06:27:37.438Z,6.15
2023-11-18T06:30:05.174Z,8.30
2023-11-18T06:32:33.062Z,6.53
2023-11-18T06:35:00.206Z,7.13
2023-11-18T06:37:33.759Z,6.77
2023-11-18T06:40:01.202Z,6.82
2023-11-18T06:42:29.016Z,6.80
2023-11-18T06:44:56.158Z,6.10
2023-11-18T06:47:24.271Z,6.35
2023-11-18T06:49:53.592Z,6.10
2023-11-18T06:52:22.590Z,6.05
2023-11-18T06:54:53.168Z,6.40
2023-11-18T06:57:20.513Z,6.47
2023-11-18T06:59:47.684Z,7.63
2023-11-18T07:02:14.850Z,6.57
2023-11-18T07:04:42.057Z,7.68
2023-11-18T07:07:10.254Z,7.15
2023-11-18T07:09:37.523Z,7.75
2023-11-18T07:12:05.181Z,7.57
2023-11-18T07:14:32.306Z,6.80
2023-11-18T07:16:59.496Z,7.18
2023-11-18T07:19:26.629Z,7.57
2023-11-18T07:21:53.805Z,6.75
2023-11-18T07:24:22.022Z,7.13
2023-11-18T07:26:52.397Z,7.57
2023-11-18T07:29:20.275Z,7.97
2023-11-18T07:31:48.107Z,8.60
2023-11-18T07:34:16.386Z,10.15
2023-11-18T07:36:47.293Z,10.40
2023-11-18T07:39:17.533Z,8.80
2023-11-18T07:41:45.743Z,7.82
2023-11-18T07:44:14.540Z,7.05
2023-11-18T07:46:44.376Z,7.10
2023-11-18T07:49:12.613Z,7.78
2023-11-18T07:51:41.880Z,7.33
2023-11-18T07:54:11.475Z,7.07
2023-11-18T07:56:39.333Z,6.90
2023-11-18T07:59:09.635Z,7.15
2023-11-18T08:01:37.422Z,6.32
2023-11-18T08:04:08.108Z,7.30
2023-11-18T08:06:35.492Z,9.32
2023-11-18T08:09:04.018Z,8.25
2023-11-18T08:11:31.305Z,8.00
2023-11-18T08:14:00.231Z,6.88
2023-11-18T08:16:29.047Z,6.37
2023-11-18T08:18:57.008Z,6.88
2023-11-18T08:21:24.420Z,7.00
2023-11-18T08:23:53.871Z,6.85
2023-11-18T08:26:21.613Z,6.85
2023-11-18T08:28:49.496Z,8.00
2023-11-18T08:31:17.233Z,6.45
2023-11-18T08:33:47.876Z,8.75
2023-11-18T08:36:15.206Z,10.25
2023-11-18T08:38:45.598Z,8.48
2023-11-18T08:41:14.495Z,6.50
2023-11-18T08:43:44.968Z,6.78
2023-11-18T08:46:13.243Z,6.97
2023-11-18T08:48:40.383Z,7.20
2023-11-18T08:51:10.632Z,7.70
2023-11-18T08:53:42.528Z,7.37
2023-11-18T08:56:15.324Z,7.32
2023-11-18T08:58:50.769Z,8.10
2023-11-18T09:01:18.090Z,8.15
2023-11-18T09:03:50.005Z,8.57
2023-11-18T09:06:27.161Z,7.43
2023-11-18T09:08:55.372Z,9.68
2023-11-18T09:11:24.809Z,11.13
2023-11-18T09:13:58.624Z,7.53
2023-11-18T09:16:31.251Z,8.35
2023-11-18T09:19:03.854Z,7.43
2023-11-18T09:21:33.888Z,7.60
2023-11-18T09:24:01.103Z,7.82
2023-11-18T09:26:31.720Z,7.20
2023-11-18T09:28:59.696Z,8.00
2023-11-18T09:31:27.940Z,7.17
2023-11-18T09:33:55.261Z,6.65
2023-11-18T09:36:24.074Z,6.97
2023-11-18T09:38:51.690Z,7.80
2023-11-18T09:41:19.947Z,8.77
2023-11-18T09:43:49.286Z,7.10
2023-11-18T09:46:18.049Z,6.05
2023-11-18T09:48:54.215Z,5.93
2023-11-18T09:51:27.672Z,7.20
2023-11-18T09:53:55.656Z,6.72
2023-11-18T09:56:57.099Z,6.20
2023-11-18T09:59:36.154Z,5.22
2023-11-18T10:02:12.025Z,6.00
2023-11-18T10:04:40.648Z,4.57
2023-11-18T10:07:12.640Z,7.50
2023-11-18T10:09:40.253Z,5.47
2023-11-18T10:12:09.318Z,6.55
2023-11-18T10:14:37.474Z,6.05
2023-11-18T10:17:08.125Z,5.70
2023-11-18T10:20:14.562Z,6.55
2023-11-18T10:22:43.037Z,5.83
2023-11-18T10:25:10.173Z,6.22
2023-11-18T10:27:40.013Z,8.10
2023-11-18T10:30:20.554Z,6.80
2023-11-18T10:33:07.551Z,6.10
2023-11-18T10:35:37.085Z,6.03
2023-11-18T10:38:05.988Z,8.00
2023-11-18T10:40:40.209Z,8.02
2023-11-18T10:43:11.490Z,8.23
2023-11-18T10:45:45.153Z,7.10
2023-11-18T10:48:18.930Z,5.53
2023-11-18T10:50:48.678Z,6.13
2023-11-18T10:53:17.637Z,6.07
2023-11-18T10:55:45.541Z,5.45
2023-11-18T10:58:15.909Z,5.90
2023-11-18T11:00:57.008Z,6.13
2023-11-18T11:03:27.028Z,8.38
2023-11-18T11:05:56.280Z,5.95
2023-11-18T11:08:32.767Z,5.80
2023-11-18T11:11:09.564Z,5.72
2023-11-18T11:13:39.174Z,5.87
2023-11-18T11:16:13.691Z,5.13
2023-11-18T11:18:48.746Z,5.50
2023-11-18T11:21:26.001Z,9.35
2023-11-18T11:24:06.471Z,6.57
2023-11-18T11:26:58.184Z,8.00
2023-11-18T11:29:48.446Z,7.45
2023-11-18T11:32:53.429Z,5.30
2023-11-18T11:35:45.804Z,5.18
2023-11-18T11:38:18.086Z,4.75
2023-11-18T11:40:48.910Z,4.50
2023-11-18T11:43:22.915Z,4.45
2023-11-18T11:45:56.851Z,4.90
2023-11-18T11:48:29.338Z,4.70
2023-11-18T11:51:03.905Z,4.82
2023-11-18T11:53:40.566Z,5.17
2023-11-18T11:56:08.637Z,5.00
2023-11-18T11:58:39.426Z,5.43
2023-11-18T12:01:48.486Z,4.72
2023-11-18T12:04:29.988Z,6.13
2023-11-18T12:07:02.933Z,5.67
2023-11-18T12:09:45.362Z,5.50
2023-11-18T12:12:20.849Z,6.05
2023-11-18T12:14:53.919Z,5.85
2023-11-18T12:17:24.210Z,5.95
2023-11-18T12:19:52.707Z,4.90
2023-11-18T12:22:26.138Z,5.03
2023-11-18T12:24:59.896Z,5.80
2023-11-18T12:28:00.303Z,6.15
2023-11-18T12:30:38.360Z,5.60
2023-11-18T12:33:10.556Z,6.20
2023-11-18T12:35:39.455Z,4.88
2023-11-18T12:38:37.498Z,5.25
2023-11-18T12:41:12.483Z,5.25
2023-11-18T12:44:22.226Z,5.68
2023-11-18T12:46:56.864Z,5.40
2023-11-18T12:49:27.105Z,6.05
2023-11-18T12:51:58.127Z,5.70
2023-11-18T12:54:29.559Z,5.40
2023-11-18T12:56:57.635Z,5.30
2023-11-18T12:59:26.263Z,5.90
2023-11-18T13:01:58.789Z,4.60
2023-11-18T13:04:27.633Z,5.30
2023-11-18T13:06:55.849Z,5.55
2023-11-18T13:09:33.811Z,6.10
2023-11-18T13:12:05.537Z,6.30
2023-11-18T13:14:37.872Z,5.68
2023-11-18T13:17:10.118Z,5.10
2023-11-18T13:19:37.563Z,6.88
2023-11-18T13:22:10.273Z,6.45
2023-11-18T13:24:41.449Z,5.93
2023-11-18T13:27:15.714Z,6.28
2023-11-18T13:29:54.532Z,5.72
2023-11-18T13:32:27.676Z,5.78
2023-11-18T13:34:55.222Z,6.45
2023-11-18T13:37:24.362Z,5.80
2023-11-18T13:40:03.006Z,5.78
2023-11-18T13:42:35.393Z,5.30
2023-11-18T13:45:33.440Z,5.35
2023-11-18T13:48:04.149Z,5.35
2023-11-18T13:50:40.919Z,5.50
2023-11-18T13:53:09.651Z,5.75
2023-11-18T13:55:40.313Z,5.00
2023-11-18T13:58:08.159Z,5.25
2023-11-18T14:00:35.541Z,5.18
2023-11-18T14:03:12.400Z,5.80
2023-11-18T14:05:40.307Z,5.55
2023-11-18T14:08:14.333Z,6.07
2023-11-18T14:10:42.522Z,5.65
2023-11-18T14:13:32.950Z,6.82
2023-11-18T14:16:00.886Z,5.70
2023-11-18T14:18:28.737Z,5.90
2023-11-18T14:20:56.398Z,7.00
2023-11-18T14:23:24.218Z,6.00
2023-11-18T14:25:52.697Z,8.13
2023-11-18T14:28:26.345Z,8.20
2023-11-18T14:30:59.561Z,7.70
2023-11-18T14:33:26.702Z,6.85
2023-11-18T14:36:02.582Z,7.15
2023-11-18T14:38:30.259Z,7.75
2023-11-18T14:40:58.467Z,8.00
2023-11-18T14:43:25.745Z,7.22
2023-11-18T14:45:59.191Z,7.35
2023-11-18T14:48:29.995Z,8.02
2023-11-18T14:50:58.401Z,7.38
2023-11-18T14:53:26.316Z,8.03
2023-11-18T14:55:53.526Z,8.75
2023-11-18T14:58:20.855Z,8.75
2023-11-18T15:00:50.398Z,9.23
2023-11-18T15:03:17.831Z,8.60
2023-11-18T15:05:45.542Z,7.70
2023-11-18T15:08:14.072Z,8.35
2023-11-18T15:10:45.706Z,8.98
2023-11-18T15:13:19.552Z,8.77
2023-11-18T15:15:49.711Z,8.35
2023-11-18T15:18:21.531Z,8.03
2023-11-18T15:20:57.806Z,8.48
2023-11-18T15:23:28.197Z,8.65
2023-11-18T15:25:55.836Z,9.57
2023-11-18T15:28:23.217Z,8.25
2023-11-18T15:30:51.946Z,9.30
2023-11-18T15:33:22.399Z,9.38
2023-11-18T15:35:50.073Z,8.93
2023-11-18T15:38:24.914Z,8.65
2023-11-18T15:40:53.936Z,9.30
2023-11-18T15:43:21.312Z,8.77
2023-11-18T15:45:52.933Z,8.68
2023-11-18T15:48:20.202Z,8.18
2023-11-18T15:50:47.544Z,8.70
2023-11-18T15:53:15.803Z,8.40
2023-11-18T15:55:49.200Z,8.77
2023-11-18T15:58:17.604Z,8.95
2023-11-18T16:00:44.828Z,8.80
2023-11-18T16:03:14.997Z,8.35
2023-11-18T16:05:42.339Z,8.40
2023-11-18T16:08:10.375Z,8.80
2023-11-18T16:10:41.794Z,8.68
2023-11-18T16:13:09.296Z,8.02
2023-11-18T16:15:37.151Z,8.57
2023-11-18T16:18:05.071Z,8.40
2023-11-18T16:21:02.824Z,9.13
2023-11-18T16:23:36.585Z,9.85
2023-11-18T16:26:04.289Z,9.30
2023-11-18T16:28:31.655Z,9.10
2023-11-18T16:30:59.200Z,9.57
2023-11-18T16:33:41.946Z,9.20
2023-11-18T16:36:09.609Z,8.43
2023-11-18T16:38:36.934Z,9.32
2023-11-18T16:41:04.561Z,9.13
2023-11-18T16:43:32.452Z,9.18
2023-11-18T16:46:01.184Z,9.37
2023-11-18T16:48:30.453Z,9.90
2023-11-18T16:50:58.106Z,8.48
2023-11-18T16:53:25.808Z,8.68
2023-11-18T16:55:55.801Z,8.30
2023-11-18T16:58:23.037Z,9.53
2023-11-18T17:00:52.479Z,9.00
2023-11-18T17:03:19.783Z,9.65
2023-11-18T17:05:47.102Z,9.65
2023-11-18T17:08:15.294Z,9.88
2023-11-18T17:10:44.313Z,8.83
2023-11-18T17:13:18.240Z,8.77
2023-11-18T17:15:45.970Z,9.77
2023-11-18T17:18:13.177Z,9.02
2023-11-18T17:20:42.457Z,8.90
2023-11-18T17:23:12.436Z,8.20
2023-11-18T17:25:42.907Z,8.77
2023-11-18T17:28:18.037Z,7.78
2023-11-18T17:30:45.436Z,9.10
2023-11-18T17:33:13.118Z,8.90
2023-11-18T17:35:41.944Z,8.97
2023-11-18T17:38:10.378Z,9.27
2023-11-18T17:40:39.319Z,9.63
2023-11-18T17:43:06.485Z,8.63
2023-11-18T17:45:34.461Z,9.52
2023-11-18T17:48:08.175Z,8.87
2023-11-18T17:50:35.426Z,8.77
2023-11-18T17:53:05.305Z,9.32
2023-11-18T17:55:33.777Z,9.55
2023-11-18T17:58:01.074Z,9.05
2023-11-18T18:00:29.040Z,9.10
2023-11-18T18:02:59.212Z,9.50
2023-11-18T18:05:26.583Z,9.35
2023-11-18T18:07:56.304Z,9.95
2023-11-18T18:10:28.840Z,9.48
2023-11-18T18:12:58.170Z,10.60
2023-11-18T18:15:27.955Z,9.52
2023-11-18T18:17:56.151Z,9.90
2023-11-18T18:20:31.523Z,10.15
2023-11-18T18:23:08.109Z,9.70
2023-11-18T18:25:37.126Z,9.03
2023-11-18T18:28:05.804Z,11.15
2023-11-18T18:30:33.634Z,9.30
2023-11-18T18:33:01.165Z,9.50
2023-11-18T18:35:34.842Z,8.55
2023-11-18T18:38:02.235Z,9.57
2023-11-18T18:40:33.088Z,10.40
2023-11-18T18:43:04.309Z,10.23
2023-11-18T18:45:34.998Z,8.77
2023-11-18T18:48:03.659Z,10.10
2023-11-18T18:50:35.859Z,7.63
2023-11-18T18:53:03.543Z,9.90
2023-11-18T18:55:50.389Z,9.75
2023-11-18T18:58:17.644Z,8.55
2023-11-18T19:00:44.861Z,8.77
2023-11-18T19:03:13.126Z,9.90
2023-11-18T19:05:40.462Z,10.00
2023-11-18T19:08:12.156Z,10.55
2023-11-18T19:10:39.367Z,9.90
2023-11-18T19:13:06.779Z,9.50
2023-11-18T19:15:34.149Z,9.37
2023-11-18T19:18:01.337Z,9.70
2023-11-18T19:20:28.736Z,10.05
2023-11-18T19:22:56.615Z,9.18
2023-11-18T19:25:23.806Z,9.10
2023-11-18T19:27:51.229Z,9.77
2023-11-18T19:30:21.122Z,10.23
2023-11-18T19:32:49.803Z,9.50
2023-11-18T19:35:17.177Z,9.40
2023-11-18T19:37:44.575Z,9.35
2023-11-18T19:40:12.547Z,9.67
2023-11-18T19:42:40.066Z,9.20
2023-11-18T19:45:09.410Z,16.92
2023-11-18T19:47:37.059Z,13.63
2023-11-18T19:50:05.169Z,9.95
2023-11-18T19:52:32.692Z,9.47
2023-11-18T19:54:59.804Z,8.77
2023-11-18T19:57:27.318Z,9.02
2023-11-18T19:59:57.613Z,9.25
2023-11-18T20:02:25.069Z,8.82
2023-11-18T20:04:52.390Z,9.07
2023-11-18T20:07:22.487Z,9.18
2023-11-18T20:09:50.305Z,8.90
2023-11-18T20:12:17.545Z,8.20
2023-11-18T20:14:44.747Z,8.40
2023-11-18T20:17:12.036Z,8.73
2023-11-18T20:19:39.812Z,8.40
2023-11-18T20:22:10.840Z,9.63
2023-11-18T20:24:38.739Z,8.05
2023-11-18T20:27:05.780Z,8.23
2023-11-18T20:29:34.950Z,8.07
2023-11-18T20:32:03.605Z,9.00
2023-11-18T20:34:31.068Z,11.60
2023-11-18T20:36:58.277Z,10.02
2023-11-18T20:39:25.509Z,8.43
2023-11-18T20:41:52.700Z,8.53
2023-11-18T20:44:19.936Z,7.43
2023-11-18T20:46:47.917Z,7.75
2023-11-18T20:49:18.611Z,6.80
2023-11-18T20:51:46.067Z,7.43
2023-11-18T20:54:13.292Z,7.57
2023-11-18T20:56:40.482Z,8.80
2023-11-18T20:59:07.749Z,9.13
2023-11-18T21:01:34.805Z,8.05
2023-11-18T21:04:02.355Z,8.60
2023-11-18T21:06:31.011Z,7.40
2023-11-18T21:08:58.225Z,7.85
2023-11-18T21:11:27.310Z,7.93
2023-11-18T21:13:57.550Z,7.10
2023-11-18T21:16:24.731Z,7.57
2023-11-18T21:18:52.047Z,9.03
2023-11-18T21:21:20.095Z,9.32
2023-11-18T21:23:49.210Z,9.65
2023-11-18T21:26:16.296Z,9.13
2023-11-18T21:28:43.696Z,10.52
2023-11-18T21:31:10.897Z,10.40
2023-11-18T21:33:38.805Z,9.07
2023-11-18T21:36:06.488Z,9.55
2023-11-18T21:38:34.915Z,11.32
2023-11-18T21:41:02.121Z,10.90
2023-11-18T21:43:29.240Z,10.60
2023-11-18T21:45:56.426Z,11.65
2023-11-18T21:48:24.144Z,10.93
2023-11-18T21:50:52.153Z,10.43
2023-11-18T21:53:22.132Z,10.05
2023-11-18T21:55:55.129Z,10.07
2023-11-18T21:58:25.884Z,9.82
2023-11-18T22:00:53.237Z,9.82
2023-11-18T22:03:20.508Z,9.27
2023-11-18T22:05:48.412Z,8.95
2023-11-18T22:08:20.554Z,9.47
2023-11-18T22:10:48.842Z,9.15
2023-11-18T22:13:16.072Z,9.02
2023-11-18T22:15:43.341Z,8.88
2023-11-18T22:18:10.836Z,9.40
2023-11-18T22:20:39.288Z,8.33
2023-11-18T22:23:09.623Z,9.40
2023-11-18T22:25:37.304Z,7.85
2023-11-18T22:28:04.519Z,6.80
2023-11-18T22:30:31.761Z,7.13
2023-11-18T22:33:01.395Z,7.20
2023-11-18T22:35:31.774Z,7.18
2023-11-18T22:38:01.446Z,10.68
2023-11-18T22:40:28.611Z,9.13
2023-11-18T22:42:56.884Z,7.93
2023-11-18T22:45:24.174Z,7.37
2023-11-18T22:47:51.981Z,7.63
2023-11-18T22:50:23.075Z,7.55
2023-11-18T22:52:51.502Z,8.23
2023-11-18T22:55:20.628Z,7.47
2023-11-18T22:57:47.951Z,7.83
2023-11-18T23:00:35.197Z,7.15
2023-11-18T23:03:03.534Z,7.15
2023-11-18T23:05:30.868Z,8.25
2023-11-18T23:07:58.224Z,7.45
2023-11-18T23:10:26.305Z,7.37
2023-11-18T23:12:56.292Z,7.80
2023-11-18T23:15:25.847Z,7.50
2023-11-18T23:17:54.153Z,7.65
2023-11-18T23:20:22.579Z,7.70
2023-11-18T23:22:51.867Z,8.27
2023-11-18T23:25:24.190Z,7.25
2023-11-18T23:28:01.072Z,8.00
2023-11-18T23:30:29.696Z,8.05
2023-11-18T23:32:56.972Z,6.80
2023-11-18T23:35:24.124Z,7.17
2023-11-18T23:37:55.398Z,6.63
2023-11-18T23:40:24.256Z,6.95
2023-11-18T23:42:52.139Z,7.43
2023-11-18T23:45:20.224Z,7.22
2023-11-18T23:47:52.464Z,6.80
2023-11-18T23:50:21.238Z,7.00
2023-11-18T23:52:48.782Z,7.15
2023-11-18T23:55:16.295Z,6.72
2023-11-18T23:57:43.996Z,7.20
